createdAt,value
2018-10-05T07:05:44.160Z,99.90
2018-10-05T07:10:46.721Z,99.90
2018-10-05T07:15:49.424Z,99.90
2018-10-05T07:20:51.943Z,99.90
2018-10-05T07:25:54.491Z,99.90
2018-10-05T07:30:57.023Z,99.90
2018-10-05T07:35:59.556Z,99.90
2018-10-05T07:41:02.130Z,99.90
2018-10-05T07:46:04.676Z,99.90
2018-10-05T07:51:07.213Z,99.90
2018-10-05T07:56:09.724Z,99.90
2018-10-05T08:01:12.367Z,99.90
2018-10-05T08:06:16.258Z,99.90
2018-10-05T08:11:18.936Z,99.90
2018-10-05T08:16:21.467Z,99.90
2018-10-05T08:21:24.081Z,99.90
2018-10-05T08:26:26.635Z,99.90
2018-10-05T08:31:29.178Z,99.20
2018-10-05T08:36:31.740Z,94.60
2018-10-05T08:41:34.271Z,94.70
2018-10-05T08:46:36.810Z,89.40
2018-10-05T08:51:39.388Z,89.90
2018-10-05T08:56:41.912Z,89.80
2018-10-05T09:01:44.427Z,89.50
2018-10-05T09:06:46.953Z,82.20
2018-10-05T09:11:49.529Z,80.20
2018-10-05T09:16:52.042Z,77.00
2018-10-05T09:21:54.576Z,64.60
2018-10-05T09:26:57.127Z,58.10
2018-10-05T09:31:59.650Z,55.30
2018-10-05T09:37:02.245Z,57.90
2018-10-05T09:42:04.820Z,54.00
2018-10-05T09:47:07.477Z,51.50
2018-10-05T09:52:10.164Z,49.80
2018-10-05T09:57:12.673Z,49.80
2018-10-05T10:02:20.903Z,48.00
2018-10-05T10:07:23.447Z,50.20
2018-10-05T10:12:25.995Z,48.80
2018-10-05T10:17:31.414Z,47.10
2018-10-05T10:22:34.105Z,45.90
2018-10-05T10:27:36.728Z,47.50
2018-10-05T10:32:39.271Z,49.80
2018-10-05T10:37:41.789Z,48.20
2018-10-05T10:42:44.434Z,46.80
2018-10-05T10:47:47.006Z,45.40
2018-10-05T10:52:49.574Z,46.80
2018-10-05T10:57:52.111Z,44.80
2018-10-05T11:02:54.683Z,45.50
2018-10-05T11:07:57.218Z,45.00
2018-10-05T11:12:59.777Z,45.80
2018-10-05T11:18:02.351Z,44.20
2018-10-05T11:23:05.288Z,42.10
2018-10-05T11:28:07.863Z,39.50
2018-10-05T11:33:10.435Z,37.10
2018-10-05T11:38:21.020Z,37.80
2018-10-05T11:43:24.252Z,36.90
2018-10-05T11:48:26.822Z,34.70
2018-10-05T11:53:29.363Z,33.10
2018-10-05T11:58:31.923Z,33.20
2018-10-05T12:03:34.506Z,30.50
2018-10-05T12:08:37.080Z,31.60
2018-10-05T12:13:39.633Z,31.50
2018-10-05T12:18:42.171Z,29.90
2018-10-05T12:23:44.734Z,28.30
2018-10-05T12:28:47.296Z,28.80
2018-10-05T12:33:49.984Z,28.70
2018-10-05T12:38:52.527Z,29.00
2018-10-05T12:43:55.092Z,28.20
2018-10-05T12:48:57.654Z,26.50
2018-10-05T12:54:00.219Z,28.20
2018-10-05T12:59:02.813Z,27.40
2018-10-05T13:04:05.398Z,25.70
2018-10-05T13:09:08.396Z,24.10
2018-10-05T13:14:11.036Z,23.60
2018-10-05T13:19:13.614Z,24.80
2018-10-05T13:24:16.179Z,23.00
2018-10-05T13:29:18.736Z,22.80
2018-10-05T13:34:21.376Z,24.00
2018-10-05T13:39:23.930Z,23.80
2018-10-05T13:44:26.533Z,21.90
2018-10-05T13:49:29.108Z,22.70
2018-10-05T13:54:31.648Z,23.20
2018-10-05T13:59:34.210Z,24.80
2018-10-05T14:04:36.794Z,24.40
2018-10-05T14:09:39.358Z,24.30
2018-10-05T14:14:41.935Z,24.80
2018-10-05T14:19:44.555Z,25.80
2018-10-05T14:24:47.111Z,24.70
2018-10-05T14:29:49.649Z,24.40
2018-10-05T14:34:52.235Z,23.20
2018-10-05T14:39:54.790Z,24.30
2018-10-05T14:44:57.336Z,24.90
2018-10-05T14:49:59.969Z,24.40
2018-10-05T14:55:02.531Z,23.80
2018-10-05T15:00:05.509Z,25.80
2018-10-05T15:05:08.163Z,25.60
2018-10-05T15:10:10.704Z,25.00
2018-10-05T15:15:13.305Z,24.60
2018-10-05T15:20:15.852Z,23.60
2018-10-05T15:25:18.409Z,24.60
2018-10-05T15:30:20.960Z,25.00
2018-10-05T15:35:23.515Z,24.90
2018-10-05T15:40:26.089Z,26.30
2018-10-05T15:45:28.676Z,27.00
2018-10-05T15:50:31.220Z,28.50
2018-10-05T15:55:33.793Z,28.70
2018-10-05T16:00:36.476Z,27.90
2018-10-05T16:05:39.096Z,30.40
2018-10-05T16:10:41.685Z,35.30
2018-10-05T16:15:44.296Z,40.40
2018-10-05T16:20:46.869Z,48.40
2018-10-05T16:25:49.520Z,53.70
2018-10-05T16:30:52.094Z,57.60
2018-10-05T16:35:54.685Z,81.40
2018-10-05T16:40:57.446Z,99.90
2018-10-05T16:51:02.644Z,99.90
2018-10-05T16:56:05.261Z,99.90
2018-10-05T17:01:07.876Z,99.90
2018-10-05T17:06:10.510Z,99.90
2018-10-05T17:11:13.073Z,99.90
2018-10-05T17:16:15.631Z,99.90
2018-10-05T17:21:18.273Z,99.90
2018-10-05T17:26:20.896Z,99.90
2018-10-05T17:31:23.869Z,99.90
2018-10-05T17:36:26.455Z,99.90
2018-10-05T17:41:29.168Z,99.90
2018-10-05T17:46:31.931Z,99.90
2018-10-05T17:51:34.487Z,99.90
2018-10-05T17:56:37.019Z,99.90
2018-10-05T18:01:39.561Z,99.90
2018-10-05T18:06:42.117Z,99.90
2018-10-05T18:11:44.677Z,99.90
2018-10-05T18:16:47.203Z,99.90
2018-10-05T18:21:49.737Z,99.90
2018-10-05T18:26:52.361Z,99.90
2018-10-05T18:31:54.948Z,99.90
2018-10-05T18:36:57.531Z,99.90
2018-10-05T18:42:00.052Z,99.90
2018-10-05T18:47:02.691Z,99.90
2018-10-05T18:52:05.295Z,99.90
2018-10-05T18:57:16.192Z,99.90
2018-10-05T19:02:19.330Z,99.90
2018-10-05T19:07:22.001Z,99.90
2018-10-05T19:12:24.556Z,99.90
2018-10-05T19:17:27.163Z,99.90
2018-10-05T19:22:29.771Z,99.90
2018-10-05T19:27:32.315Z,99.90
2018-10-05T19:32:34.852Z,99.90
2018-10-05T19:37:37.727Z,99.90
2018-10-05T19:42:40.262Z,99.90
2018-10-05T19:47:42.840Z,99.90
2018-10-05T19:52:45.368Z,99.90
2018-10-05T19:57:47.942Z,99.90
2018-10-05T20:02:51.511Z,99.90
2018-10-05T20:07:54.070Z,99.90
2018-10-05T20:12:56.646Z,99.90
2018-10-05T20:17:59.320Z,99.90
2018-10-05T20:23:01.751Z,99.90
2018-10-05T20:28:04.432Z,99.90
2018-10-05T20:33:06.999Z,99.90
2018-10-05T20:38:09.813Z,99.90
2018-10-05T20:43:12.630Z,99.90
2018-10-05T20:48:15.787Z,99.90
2018-10-05T20:53:18.319Z,99.90
2018-10-05T20:58:20.830Z,99.90
2018-10-05T21:03:23.371Z,99.90
2018-10-05T21:08:25.946Z,99.90
2018-10-05T21:13:28.482Z,99.90
2018-10-05T21:18:31.012Z,99.90
2018-10-05T21:23:33.557Z,99.90
2018-10-05T21:28:36.130Z,99.90
2018-10-05T21:33:38.667Z,99.90
2018-10-05T21:38:41.405Z,99.90
2018-10-05T21:43:43.918Z,99.90
2018-10-05T21:48:46.547Z,99.90
2018-10-05T21:53:49.070Z,99.90
2018-10-05T21:58:51.783Z,99.90
2018-10-05T22:03:54.403Z,99.90
2018-10-05T22:08:57.320Z,99.90
2018-10-05T22:14:00.198Z,99.90
2018-10-05T22:19:02.773Z,99.90
2018-10-05T22:24:05.751Z,99.90
2018-10-05T22:29:08.717Z,99.90
2018-10-05T22:34:18.008Z,99.90
2018-10-05T22:39:20.556Z,99.90
2018-10-05T22:44:23.266Z,99.90
2018-10-05T22:49:25.947Z,99.90
2018-10-05T22:54:28.501Z,99.90
2018-10-05T22:59:31.315Z,99.90
2018-10-05T23:04:34.006Z,99.90
2018-10-05T23:09:36.901Z,99.90
2018-10-05T23:14:39.659Z,99.90
2018-10-05T23:19:42.310Z,99.90
2018-10-05T23:24:45.013Z,99.90
2018-10-05T23:29:47.583Z,99.90
2018-10-05T23:34:50.186Z,99.90
2018-10-05T23:39:52.856Z,99.90
2018-10-05T23:44:55.529Z,99.90
2018-10-05T23:49:58.102Z,99.90
2018-10-05T23:55:00.668Z,99.90
